createdAt,value
2022-09-21T00:01:21.795Z,100.00
2022-09-21T00:03:54.465Z,100.00
2022-09-21T00:06:22.728Z,100.00
2022-09-21T00:08:51.512Z,98.58
2022-09-21T00:11:21.091Z,91.19
2022-09-21T00:13:48.707Z,87.29
2022-09-21T00:16:17.383Z,84.84
2022-09-21T00:18:45.425Z,84.17
2022-09-21T00:21:14.858Z,87.78
2022-09-21T00:26:29.186Z,85.48
2022-09-21T00:28:58.618Z,89.10
2022-09-21T00:31:26.667Z,87.76
2022-09-21T00:33:54.529Z,90.71
2022-09-21T00:36:23.619Z,94.54
2022-09-21T00:38:59.039Z,97.24
2022-09-21T00:41:31.019Z,97.37
2022-09-21T00:44:16.994Z,92.89
2022-09-21T00:46:45.867Z,89.05
2022-09-21T00:49:13.885Z,86.70
2022-09-21T00:51:42.498Z,87.72
2022-09-21T00:54:15.063Z,90.20
2022-09-21T00:56:43.566Z,92.50
2022-09-21T00:59:13.555Z,94.19
2022-09-21T01:04:28.917Z,98.42
2022-09-21T01:06:58.183Z,96.82
2022-09-21T01:09:26.789Z,96.55
2022-09-21T01:12:10.645Z,97.59
2022-09-21T01:14:53.895Z,98.86
2022-09-21T01:17:34.376Z,100.00
2022-09-21T01:20:24.648Z,100.00
2022-09-21T01:23:07.889Z,100.00
2022-09-21T01:25:35.378Z,100.00
2022-09-21T01:28:25.818Z,100.00
2022-09-21T01:30:54.897Z,100.00
2022-09-21T01:33:26.473Z,100.00
2022-09-21T01:35:57.412Z,100.00
2022-09-21T01:38:41.362Z,100.00
2022-09-21T01:41:11.647Z,100.00
2022-09-21T01:43:42.882Z,100.00
2022-09-21T01:46:13.871Z,100.00
2022-09-21T01:48:45.457Z,100.00
2022-09-21T01:51:15.342Z,100.00
2022-09-21T01:53:51.846Z,100.00
2022-09-21T01:56:24.384Z,100.00
2022-09-21T01:59:11.332Z,100.00
2022-09-21T02:01:43.786Z,100.00
2022-09-21T02:04:12.659Z,100.00
2022-09-21T02:06:45.338Z,100.00
2022-09-21T02:09:13.661Z,100.00
2022-09-21T02:11:44.212Z,100.00
2022-09-21T02:14:13.393Z,100.00
2022-09-21T02:16:49.522Z,100.00
2022-09-21T02:19:22.371Z,100.00
2022-09-21T02:22:05.668Z,100.00
2022-09-21T02:24:41.573Z,100.00
2022-09-21T02:27:28.283Z,100.00
2022-09-21T02:30:03.088Z,100.00
2022-09-21T02:32:33.799Z,100.00
2022-09-21T02:35:09.868Z,100.00
2022-09-21T02:37:41.961Z,100.00
2022-09-21T02:40:30.253Z,100.00
2022-09-21T02:43:01.213Z,100.00
2022-09-21T02:45:31.386Z,100.00
2022-09-21T02:48:12.564Z,100.00
2022-09-21T02:50:45.633Z,100.00
2022-09-21T02:53:15.699Z,100.00
2022-09-21T02:55:45.148Z,100.00
2022-09-21T02:58:15.034Z,100.00
2022-09-21T03:00:42.544Z,100.00
2022-09-21T03:03:17.631Z,100.00
2022-09-21T03:05:47.013Z,100.00
2022-09-21T03:08:15.044Z,100.00
2022-09-21T03:10:42.620Z,100.00
2022-09-21T03:13:11.031Z,100.00
2022-09-21T03:15:39.167Z,100.00
2022-09-21T03:18:09.764Z,100.00
2022-09-21T03:20:38.848Z,100.00
2022-09-21T03:23:06.615Z,100.00
2022-09-21T03:25:34.240Z,100.00
2022-09-21T03:28:02.822Z,100.00
2022-09-21T03:30:30.692Z,100.00
2022-09-21T03:32:58.986Z,100.00
2022-09-21T03:35:30.380Z,100.00
2022-09-21T03:37:58.331Z,100.00
2022-09-21T03:40:26.806Z,100.00
2022-09-21T03:42:55.370Z,100.00
2022-09-21T03:45:23.315Z,100.00
2022-09-21T03:47:50.810Z,100.00
2022-09-21T03:50:18.844Z,100.00
2022-09-21T03:52:46.433Z,100.00
2022-09-21T03:55:13.956Z,100.00
2022-09-21T03:57:42.047Z,100.00
2022-09-21T04:00:11.396Z,100.00
2022-09-21T04:02:42.454Z,100.00
2022-09-21T04:05:11.321Z,100.00
2022-09-21T04:07:39.757Z,100.00
2022-09-21T04:10:07.967Z,100.00
2022-09-21T04:12:36.703Z,100.00
2022-09-21T04:15:07.790Z,100.00
2022-09-21T04:17:35.313Z,100.00
2022-09-21T04:20:03.122Z,100.00
2022-09-21T04:22:31.729Z,100.00
2022-09-21T04:24:59.304Z,100.00
2022-09-21T04:27:26.878Z,100.00
2022-09-21T04:29:54.774Z,100.00
2022-09-21T04:32:22.456Z,100.00
2022-09-21T04:34:50.405Z,100.00
2022-09-21T04:37:19.050Z,100.00
2022-09-21T04:39:47.094Z,100.00
2022-09-21T04:42:14.660Z,100.00
2022-09-21T04:44:45.187Z,99.51
2022-09-21T04:47:12.738Z,100.00
2022-09-21T04:49:40.323Z,100.00
2022-09-21T04:52:08.460Z,100.00
2022-09-21T04:54:36.031Z,100.00
2022-09-21T04:57:03.575Z,100.00
2022-09-21T04:59:31.545Z,100.00
2022-09-21T05:01:59.002Z,100.00
2022-09-21T05:04:26.554Z,100.00
2022-09-21T05:06:54.491Z,100.00
2022-09-21T05:09:40.860Z,100.00
2022-09-21T05:12:09.349Z,100.00
2022-09-21T05:14:36.964Z,100.00
2022-09-21T05:17:04.523Z,100.00
2022-09-21T05:19:32.463Z,99.54
2022-09-21T05:21:59.965Z,100.00
2022-09-21T05:24:27.599Z,100.00
2022-09-21T05:26:55.550Z,100.00
2022-09-21T05:29:23.196Z,100.00
2022-09-21T05:32:01.744Z,100.00
2022-09-21T05:34:36.896Z,99.87
2022-09-21T05:37:33.970Z,80.75
2022-09-21T05:40:02.136Z,80.05
2022-09-21T05:42:30.474Z,94.93
2022-09-21T05:44:58.147Z,87.27
2022-09-21T05:47:38.105Z,84.64
2022-09-21T05:50:06.209Z,95.92
2022-09-21T05:52:50.851Z,94.28
2022-09-21T05:55:34.879Z,96.58
2022-09-21T05:58:24.331Z,81.69
2022-09-21T06:00:57.266Z,79.09
2022-09-21T06:03:29.665Z,86.64
2022-09-21T06:06:00.184Z,90.52
2022-09-21T06:08:28.384Z,85.18
2022-09-21T06:10:56.259Z,82.02
2022-09-21T06:13:23.926Z,77.28
2022-09-21T06:15:51.819Z,79.95
2022-09-21T06:18:19.382Z,79.49
2022-09-21T06:20:47.256Z,91.37
2022-09-21T06:23:15.463Z,94.29
2022-09-21T06:25:43.061Z,91.67
2022-09-21T06:28:12.211Z,94.26
2022-09-21T06:30:42.493Z,82.00
2022-09-21T06:33:10.126Z,79.03
2022-09-21T06:35:37.749Z,80.45
2022-09-21T06:38:06.924Z,77.93
2022-09-21T06:40:36.010Z,76.06
2022-09-21T06:43:04.213Z,80.65
2022-09-21T06:45:33.450Z,84.64
2022-09-21T06:48:01.117Z,88.74
2022-09-21T06:50:28.617Z,82.95
2022-09-21T06:52:56.500Z,83.28
2022-09-21T06:55:34.244Z,82.05
2022-09-21T06:58:03.254Z,74.90
2022-09-21T07:00:31.190Z,73.33
2022-09-21T07:02:58.842Z,74.45
2022-09-21T07:05:26.983Z,77.03
2022-09-21T07:08:01.202Z,74.76
2022-09-21T07:10:29.315Z,74.76
2022-09-21T07:12:56.867Z,73.77
2022-09-21T07:15:25.896Z,71.37
2022-09-21T07:18:05.041Z,73.75
2022-09-21T07:20:33.317Z,72.43
2022-09-21T07:23:02.087Z,68.62
2022-09-21T07:25:29.634Z,66.21
2022-09-21T07:27:57.233Z,67.96
2022-09-21T07:30:25.370Z,68.32
2022-09-21T07:32:53.058Z,65.20
2022-09-21T07:35:20.848Z,62.83
2022-09-21T07:37:48.886Z,61.77
2022-09-21T07:40:18.419Z,63.36
2022-09-21T07:42:54.005Z,63.32
2022-09-21T07:45:21.890Z,62.81
2022-09-21T07:47:49.980Z,62.37
2022-09-21T07:50:17.550Z,63.62
2022-09-21T07:52:45.070Z,66.39
2022-09-21T07:55:13.203Z,65.91
2022-09-21T07:57:59.604Z,65.82
2022-09-21T08:00:32.908Z,65.69
2022-09-21T08:03:01.586Z,64.87
2022-09-21T08:05:29.090Z,67.37
2022-09-21T08:07:57.525Z,69.03
2022-09-21T08:10:28.317Z,69.67
2022-09-21T08:12:56.922Z,68.92
2022-09-21T08:15:47.075Z,67.69
2022-09-21T08:18:12.693Z,64.14
2022-09-21T08:20:41.336Z,66.55
2022-09-21T08:23:13.315Z,66.24
2022-09-21T08:25:41.408Z,64.70
2022-09-21T08:28:10.032Z,64.93
2022-09-21T08:30:37.940Z,68.12
2022-09-21T08:33:07.472Z,62.84
2022-09-21T08:35:36.701Z,65.44
2022-09-21T08:38:04.310Z,65.61
2022-09-21T08:40:33.013Z,60.90
2022-09-21T08:43:05.189Z,59.47
2022-09-21T08:45:36.042Z,67.61
2022-09-21T08:48:06.710Z,61.96
2022-09-21T08:50:37.594Z,65.70
2022-09-21T08:53:08.689Z,66.12
2022-09-21T08:55:38.067Z,64.00
2022-09-21T08:58:17.421Z,67.17
2022-09-21T09:00:45.582Z,67.14
2022-09-21T09:03:25.642Z,64.72
2022-09-21T09:06:00.123Z,64.74
2022-09-21T09:08:36.746Z,61.25
2022-09-21T09:11:15.641Z,65.36
2022-09-21T09:13:43.250Z,65.00
2022-09-21T09:16:14.099Z,64.10
2022-09-21T09:19:01.903Z,57.28
2022-09-21T09:21:34.467Z,64.37
2022-09-21T09:24:09.960Z,63.64
2022-09-21T09:26:46.719Z,60.95
2022-09-21T09:29:14.316Z,56.47
2022-09-21T09:31:42.336Z,56.47
2022-09-21T09:34:18.817Z,58.87
2022-09-21T09:36:59.269Z,65.23
2022-09-21T09:39:29.880Z,57.09
2022-09-21T09:42:12.616Z,62.07
2022-09-21T09:44:42.836Z,62.11
2022-09-21T09:47:26.672Z,54.16
2022-09-21T09:49:54.461Z,54.32
2022-09-21T09:52:22.754Z,61.95
2022-09-21T09:54:50.269Z,53.95
2022-09-21T09:57:25.287Z,61.07
2022-09-21T09:59:55.689Z,56.40
2022-09-21T10:02:24.339Z,55.93
2022-09-21T10:05:01.764Z,56.90
2022-09-21T10:07:48.635Z,58.22
2022-09-21T10:10:28.968Z,65.93
2022-09-21T10:12:57.959Z,56.80
2022-09-21T10:15:26.058Z,66.77
2022-09-21T10:18:20.238Z,58.94
2022-09-21T10:21:01.777Z,62.83
2022-09-21T10:23:30.728Z,67.59
2022-09-21T10:26:04.263Z,67.45
2022-09-21T10:28:32.095Z,58.68
2022-09-21T10:31:10.892Z,60.67
2022-09-21T10:33:47.788Z,68.48
2022-09-21T10:36:27.052Z,63.95
2022-09-21T10:38:55.501Z,66.64
2022-09-21T10:41:26.843Z,68.57
2022-09-21T10:43:58.366Z,65.18
2022-09-21T10:46:33.787Z,63.83
2022-09-21T10:49:03.056Z,64.77
2022-09-21T10:51:31.481Z,69.69
2022-09-21T10:53:59.153Z,69.16
2022-09-21T10:56:29.836Z,63.23
2022-09-21T10:59:13.092Z,68.41
2022-09-21T11:01:47.060Z,61.83
2022-09-21T11:04:21.332Z,61.53
2022-09-21T11:06:51.387Z,60.27
2022-09-21T11:09:19.316Z,61.33
2022-09-21T11:11:51.192Z,68.98
2022-09-21T11:14:19.126Z,70.33
2022-09-21T11:17:02.175Z,62.21
2022-09-21T11:19:48.886Z,62.09
2022-09-21T11:22:25.139Z,68.77
2022-09-21T11:25:11.860Z,67.91
2022-09-21T11:27:45.356Z,61.52
2022-09-21T11:30:16.809Z,63.04
2022-09-21T11:33:03.024Z,65.12
2022-09-21T11:35:49.468Z,66.64
2022-09-21T11:38:34.378Z,68.39
2022-09-21T11:41:13.108Z,68.49
2022-09-21T11:43:49.919Z,66.74
2022-09-21T11:46:17.832Z,69.18
2022-09-21T11:49:04.264Z,61.33
2022-09-21T11:51:38.602Z,60.65
2022-09-21T11:54:13.167Z,59.87
2022-09-21T11:56:49.670Z,63.45
2022-09-21T11:59:39.164Z,59.78
2022-09-21T12:02:21.047Z,59.04
2022-09-21T12:05:10.727Z,62.06
2022-09-21T12:08:04.413Z,60.26
2022-09-21T12:10:39.852Z,62.57
2022-09-21T12:13:19.708Z,62.41
2022-09-21T12:16:07.878Z,64.10
2022-09-21T12:18:55.301Z,70.09
2022-09-21T12:21:31.210Z,62.63
2022-09-21T12:24:02.770Z,68.44
2022-09-21T12:26:42.854Z,62.39
2022-09-21T12:29:33.427Z,65.51
2022-09-21T12:32:20.186Z,69.58
2022-09-21T12:34:51.890Z,66.31
2022-09-21T12:37:25.136Z,65.99
2022-09-21T12:39:55.417Z,68.01
2022-09-21T12:42:32.195Z,69.82
2022-09-21T12:45:12.002Z,67.19
2022-09-21T12:48:01.545Z,70.70
2022-09-21T12:51:05.819Z,70.36
2022-09-21T12:53:35.595Z,67.27
2022-09-21T12:56:09.954Z,70.49
2022-09-21T12:58:53.876Z,65.59
2022-09-21T13:01:29.275Z,67.85
2022-09-21T13:04:05.706Z,66.75
2022-09-21T13:06:45.076Z,69.61
2022-09-21T13:09:15.113Z,73.12
2022-09-21T13:11:56.016Z,68.14
2022-09-21T13:14:26.944Z,72.41
2022-09-21T13:17:01.216Z,70.12
2022-09-21T13:19:31.408Z,71.12
2022-09-21T13:22:16.332Z,70.89
2022-09-21T13:24:45.855Z,68.92
2022-09-21T13:27:14.141Z,72.03
2022-09-21T13:29:43.118Z,72.13
2022-09-21T13:32:11.065Z,70.32
2022-09-21T13:34:39.382Z,69.34
2022-09-21T13:37:16.092Z,70.55
2022-09-21T13:39:45.027Z,71.48
2022-09-21T13:42:30.623Z,71.91
2022-09-21T13:45:05.806Z,71.81
2022-09-21T13:47:35.262Z,73.05
2022-09-21T13:50:11.268Z,71.24
2022-09-21T13:52:43.533Z,71.41
2022-09-21T13:55:23.350Z,74.32
2022-09-21T13:57:52.550Z,73.06
2022-09-21T14:00:20.391Z,73.33
2022-09-21T14:02:51.103Z,72.79
2022-09-21T14:05:37.427Z,71.75
2022-09-21T14:08:20.759Z,73.04
2022-09-21T14:10:48.925Z,73.33
2022-09-21T14:13:35.703Z,74.21
2022-09-21T14:16:22.060Z,73.12
2022-09-21T14:18:52.417Z,73.83
2022-09-21T14:21:20.591Z,74.31
2022-09-21T14:24:06.588Z,74.61
2022-09-21T14:26:34.592Z,73.76
2022-09-21T14:29:17.576Z,73.12
2022-09-21T14:31:45.657Z,72.88
2022-09-21T14:34:18.196Z,72.54
2022-09-21T14:36:50.397Z,73.07
2022-09-21T14:39:20.531Z,73.71
2022-09-21T14:41:50.489Z,73.60
2022-09-21T14:44:20.138Z,73.55
2022-09-21T14:46:51.251Z,75.56
2022-09-21T14:49:31.116Z,75.40
2022-09-21T14:52:32.402Z,75.02
2022-09-21T14:55:00.219Z,76.22
2022-09-21T14:57:35.493Z,75.73
2022-09-21T15:00:05.821Z,75.72
2022-09-21T15:02:36.015Z,76.60
2022-09-21T15:05:16.179Z,77.07
2022-09-21T15:08:06.055Z,80.46
2022-09-21T15:10:58.442Z,84.44
2022-09-21T15:13:46.737Z,84.64
2022-09-21T15:16:35.570Z,85.90
2022-09-21T15:19:13.337Z,83.71
2022-09-21T15:21:43.691Z,84.92
2022-09-21T15:24:32.269Z,88.38
2022-09-21T15:27:13.116Z,89.19
2022-09-21T15:29:43.449Z,90.05
2022-09-21T15:32:24.653Z,90.80
2022-09-21T15:35:01.633Z,91.24
2022-09-21T15:37:34.822Z,90.85
2022-09-21T15:40:04.366Z,90.84
2022-09-21T15:42:32.159Z,90.45
2022-09-21T15:45:13.986Z,87.14
2022-09-21T15:47:45.287Z,87.12
2022-09-21T15:50:13.991Z,90.62
2022-09-21T15:52:51.561Z,91.65
2022-09-21T15:55:21.761Z,92.27
2022-09-21T15:57:56.593Z,92.72
2022-09-21T16:00:24.551Z,93.80
2022-09-21T16:03:06.238Z,93.98
2022-09-21T16:05:43.466Z,94.57
2022-09-21T16:08:20.305Z,92.72
2022-09-21T16:10:47.798Z,91.60
2022-09-21T16:13:34.146Z,90.78
2022-09-21T16:16:06.018Z,92.11
2022-09-21T16:18:46.748Z,92.87
2022-09-21T16:21:16.723Z,92.74
2022-09-21T16:23:44.685Z,94.42
2022-09-21T16:26:19.124Z,94.21
2022-09-21T16:28:50.059Z,94.29
2022-09-21T16:31:25.108Z,94.37
2022-09-21T16:33:56.546Z,93.82
2022-09-21T16:36:29.882Z,93.36
2022-09-21T16:38:58.033Z,93.69
2022-09-21T16:41:32.571Z,95.01
2022-09-21T16:44:00.961Z,94.73
2022-09-21T16:46:28.599Z,94.36
2022-09-21T16:48:56.206Z,94.15
2022-09-21T16:51:27.260Z,96.08
2022-09-21T16:53:58.850Z,94.41
2022-09-21T16:56:27.387Z,93.51
2022-09-21T16:58:55.154Z,92.92
2022-09-21T17:01:22.804Z,94.46
2022-09-21T17:03:51.041Z,94.76
2022-09-21T17:06:20.005Z,94.14
2022-09-21T17:08:48.555Z,93.07
2022-09-21T17:11:23.097Z,93.42
2022-09-21T17:13:51.237Z,93.28
2022-09-21T17:16:20.453Z,93.50
2022-09-21T17:18:48.708Z,88.74
2022-09-21T17:21:16.983Z,90.53
2022-09-21T17:23:45.689Z,82.23
2022-09-21T17:26:18.237Z,86.85
2022-09-21T17:28:46.173Z,87.37
2022-09-21T17:31:16.811Z,84.81
2022-09-21T17:33:45.301Z,86.19
2022-09-21T17:36:14.032Z,92.19
2022-09-21T17:38:42.787Z,95.42
2022-09-21T17:41:28.772Z,95.11
2022-09-21T17:44:01.473Z,95.79
2022-09-21T17:47:01.715Z,95.20
2022-09-21T17:49:29.961Z,94.87
2022-09-21T17:52:16.547Z,96.74
2022-09-21T17:54:46.223Z,97.49
2022-09-21T17:57:33.238Z,99.13
2022-09-21T18:00:05.129Z,100.00
2022-09-21T18:02:33.357Z,98.59
2022-09-21T18:05:10.762Z,98.29
2022-09-21T18:07:38.951Z,100.00
2022-09-21T18:10:07.990Z,98.30
2022-09-21T18:12:38.003Z,100.00
2022-09-21T18:15:12.258Z,100.00
2022-09-21T18:17:40.531Z,99.51
2022-09-21T18:20:11.403Z,97.99
2022-09-21T18:22:58.058Z,99.49
2022-09-21T18:25:34.168Z,98.89
2022-09-21T18:28:12.768Z,100.00
2022-09-21T18:33:35.348Z,100.00
2022-09-21T18:36:09.042Z,100.00
2022-09-21T18:38:48.156Z,100.00
2022-09-21T18:41:18.389Z,100.00
2022-09-21T18:44:05.628Z,100.00
2022-09-21T18:46:51.747Z,98.31
2022-09-21T18:49:19.442Z,100.00
2022-09-21T18:51:53.973Z,100.00
2022-09-21T18:54:24.096Z,100.00
2022-09-21T18:56:52.621Z,97.40
2022-09-21T18:59:20.527Z,99.75
2022-09-21T19:01:48.748Z,98.46
2022-09-21T19:04:20.439Z,97.00
2022-09-21T19:07:00.950Z,96.63
2022-09-21T19:09:35.025Z,99.85
2022-09-21T19:12:03.005Z,99.50
2022-09-21T19:14:49.349Z,99.61
2022-09-21T19:17:35.746Z,99.49
2022-09-21T19:20:11.064Z,96.66
2022-09-21T19:22:52.161Z,100.00
2022-09-21T19:25:25.487Z,100.00
2022-09-21T19:28:02.030Z,100.00
2022-09-21T19:30:30.955Z,100.00
2022-09-21T19:32:58.630Z,100.00
2022-09-21T19:35:30.230Z,100.00
2022-09-21T19:37:59.540Z,100.00
2022-09-21T19:40:28.541Z,100.00
2022-09-21T19:43:14.891Z,100.00
2022-09-21T19:46:05.357Z,100.00
2022-09-21T19:48:42.478Z,100.00
2022-09-21T19:51:14.787Z,100.00
2022-09-21T19:54:00.932Z,100.00
2022-09-21T19:56:52.129Z,100.00
2022-09-21T19:59:41.507Z,99.97
2022-09-21T20:02:12.471Z,100.00
2022-09-21T20:04:51.500Z,100.00
2022-09-21T20:07:21.733Z,99.78
2022-09-21T20:10:09.748Z,100.00
2022-09-21T20:12:45.387Z,100.00
2022-09-21T20:15:28.947Z,100.00
2022-09-21T20:18:02.140Z,100.00
2022-09-21T20:20:30.360Z,100.00
2022-09-21T20:22:58.801Z,100.00
2022-09-21T20:25:37.967Z,100.00
2022-09-21T20:28:07.309Z,100.00
2022-09-21T20:30:36.303Z,100.00
2022-09-21T20:33:08.054Z,100.00
2022-09-21T20:35:35.954Z,100.00
2022-09-21T20:38:03.455Z,100.00
2022-09-21T20:40:32.641Z,100.00
2022-09-21T20:43:03.726Z,100.00
2022-09-21T20:45:32.545Z,100.00
2022-09-21T20:48:20.286Z,100.00
2022-09-21T20:50:50.748Z,100.00
2022-09-21T20:53:19.577Z,100.00
2022-09-21T20:55:54.190Z,100.00
2022-09-21T20:58:22.019Z,100.00
2022-09-21T21:00:52.196Z,100.00
2022-09-21T21:03:24.342Z,100.00
2022-09-21T21:05:51.831Z,100.00
2022-09-21T21:08:19.342Z,100.00
2022-09-21T21:10:47.344Z,100.00
2022-09-21T21:13:14.866Z,100.00
2022-09-21T21:15:42.347Z,100.00
2022-09-21T21:18:11.711Z,100.00
2022-09-21T21:20:39.735Z,100.00
2022-09-21T21:23:08.318Z,100.00
2022-09-21T21:25:36.328Z,100.00
2022-09-21T21:28:03.786Z,100.00
2022-09-21T21:30:31.770Z,100.00
2022-09-21T21:32:59.663Z,100.00
2022-09-21T21:35:27.133Z,100.00
2022-09-21T21:37:54.806Z,100.00
2022-09-21T21:40:23.077Z,100.00
2022-09-21T21:42:50.778Z,100.00
2022-09-21T21:45:18.488Z,100.00
2022-09-21T21:47:46.326Z,99.48
2022-09-21T21:50:13.926Z,100.00
2022-09-21T21:52:41.347Z,100.00
2022-09-21T21:55:09.436Z,100.00
2022-09-21T21:57:37.514Z,100.00
2022-09-21T22:00:05.896Z,100.00
2022-09-21T22:02:33.277Z,100.00
2022-09-21T22:05:01.228Z,100.00
2022-09-21T22:07:29.705Z,100.00
2022-09-21T22:09:57.236Z,98.95
2022-09-21T22:12:26.407Z,97.59
2022-09-21T22:14:53.914Z,99.08
2022-09-21T22:17:21.728Z,100.00
2022-09-21T22:19:49.791Z,100.00
2022-09-21T22:22:17.225Z,100.00
2022-09-21T22:24:45.296Z,100.00
2022-09-21T22:27:13.330Z,100.00
2022-09-21T22:29:40.951Z,100.00
2022-09-21T22:32:08.482Z,100.00
2022-09-21T22:34:36.325Z,100.00
2022-09-21T22:37:03.807Z,100.00
2022-09-21T22:42:17.980Z,100.00
2022-09-21T22:44:45.610Z,100.00
2022-09-21T22:47:13.094Z,100.00
2022-09-21T22:49:41.011Z,100.00
2022-09-21T22:52:08.542Z,100.00
2022-09-21T22:54:36.032Z,100.00
2022-09-21T22:57:03.941Z,100.00
2022-09-21T22:59:31.447Z,100.00
2022-09-21T23:01:58.947Z,100.00
2022-09-21T23:04:26.912Z,100.00
2022-09-21T23:06:54.531Z,100.00
2022-09-21T23:09:22.123Z,100.00
2022-09-21T23:11:53.742Z,100.00
2022-09-21T23:14:22.236Z,100.00
2022-09-21T23:16:50.467Z,100.00
2022-09-21T23:19:17.989Z,100.00
2022-09-21T23:21:46.904Z,100.00
2022-09-21T23:24:14.845Z,100.00
2022-09-21T23:26:42.448Z,100.00
2022-09-21T23:29:12.121Z,100.00
2022-09-21T23:31:44.432Z,100.00
2022-09-21T23:34:13.192Z,100.00
2022-09-21T23:36:41.435Z,100.00
2022-09-21T23:39:10.877Z,100.00
2022-09-21T23:41:38.417Z,100.00
2022-09-21T23:44:06.630Z,100.00
2022-09-21T23:46:35.913Z,100.00
2022-09-21T23:49:04.070Z,100.00
2022-09-21T23:51:32.349Z,100.00
2022-09-21T23:54:00.038Z,100.00
2022-09-21T23:56:28.732Z,100.00
2022-09-21T23:58:56.676Z,100.00
